createdAt,value
2018-07-28T00:01:12.629Z,82.31
2018-07-28T00:03:41.301Z,81.84
2018-07-28T00:06:10.003Z,82.12
2018-07-28T00:08:38.659Z,82.23
2018-07-28T00:11:07.271Z,82.22
2018-07-28T00:13:35.977Z,82.36
2018-07-28T00:16:04.650Z,82.31
2018-07-28T00:18:33.269Z,82.35
2018-07-28T00:21:01.956Z,82.24
2018-07-28T00:23:30.634Z,82.34
2018-07-28T00:26:05.377Z,82.01
2018-07-28T00:28:34.035Z,82.19
2018-07-28T00:31:02.646Z,82.80
2018-07-28T00:33:31.276Z,83.03
2018-07-28T00:35:59.946Z,82.32
2018-07-28T00:38:28.595Z,82.20
2018-07-28T00:40:57.275Z,81.93
2018-07-28T00:43:25.881Z,82.19
2018-07-28T00:45:54.529Z,82.14
2018-07-28T00:48:23.143Z,81.82
2018-07-28T00:50:51.744Z,82.04
2018-07-28T00:53:20.391Z,82.00
2018-07-28T00:55:48.999Z,82.29
2018-07-28T00:58:17.810Z,82.26
2018-07-28T01:00:47.085Z,82.31
2018-07-28T01:03:15.718Z,82.53
2018-07-28T01:05:44.317Z,82.54
2018-07-28T01:08:12.914Z,82.27
2018-07-28T01:10:41.587Z,82.68
2018-07-28T01:13:10.301Z,82.31
2018-07-28T01:15:38.945Z,82.12
2018-07-28T01:18:07.585Z,81.87
2018-07-28T01:20:36.209Z,82.20
2018-07-28T01:23:04.949Z,82.31
2018-07-28T01:25:33.604Z,81.89
2018-07-28T01:28:03.106Z,82.25
2018-07-28T01:30:32.777Z,81.93
2018-07-28T01:33:02.021Z,82.62
2018-07-28T01:35:30.670Z,82.84
2018-07-28T01:37:59.558Z,83.03
2018-07-28T01:40:28.147Z,83.54
2018-07-28T01:42:56.835Z,83.46
2018-07-28T01:45:25.421Z,83.27
2018-07-28T01:47:54.103Z,83.46
2018-07-28T01:50:22.739Z,83.25
2018-07-28T01:52:51.322Z,83.15
2018-07-28T01:55:20.018Z,83.49
2018-07-28T01:57:48.649Z,83.15
2018-07-28T02:00:17.262Z,83.41
2018-07-28T02:02:45.953Z,83.38
2018-07-28T02:05:14.612Z,83.47
2018-07-28T02:07:43.237Z,82.96
2018-07-28T02:10:11.903Z,83.08
2018-07-28T02:12:40.549Z,83.06
2018-07-28T02:15:09.618Z,83.24
2018-07-28T02:17:38.262Z,83.06
2018-07-28T02:20:07.541Z,82.49
2018-07-28T02:22:36.157Z,81.89
2018-07-28T02:25:06.525Z,82.31
2018-07-28T02:27:35.170Z,82.40
2018-07-28T02:30:04.330Z,82.79
2018-07-28T02:32:32.958Z,82.91
2018-07-28T02:35:01.578Z,82.81
2018-07-28T02:37:30.182Z,82.45
2018-07-28T02:39:58.758Z,82.84
2018-07-28T02:42:27.374Z,83.15
2018-07-28T02:44:56.034Z,83.40
2018-07-28T02:47:24.750Z,83.35
2018-07-28T02:49:53.426Z,83.22
2018-07-28T02:52:22.071Z,83.48
2018-07-28T02:54:50.705Z,83.65
2018-07-28T02:57:19.309Z,83.21
2018-07-28T02:59:47.909Z,82.93
2018-07-28T03:02:16.554Z,82.98
2018-07-28T03:04:45.166Z,82.98
2018-07-28T03:07:13.860Z,82.81
2018-07-28T03:09:42.506Z,83.30
2018-07-28T03:12:11.105Z,83.10
2018-07-28T03:14:39.770Z,83.43
2018-07-28T03:17:08.388Z,84.01
2018-07-28T03:19:37.267Z,83.47
2018-07-28T03:22:05.996Z,83.71
2018-07-28T03:24:34.694Z,83.63
2018-07-28T03:27:03.372Z,84.01
2018-07-28T03:29:31.982Z,83.87
2018-07-28T03:32:00.671Z,83.89
2018-07-28T03:34:29.297Z,83.75
2018-07-28T03:36:57.970Z,82.93
2018-07-28T03:39:26.612Z,83.42
2018-07-28T03:41:55.273Z,83.60
2018-07-28T03:44:24.182Z,83.76
2018-07-28T03:46:52.868Z,83.71
2018-07-28T03:49:21.532Z,83.77
2018-07-28T03:51:50.180Z,83.98
2018-07-28T03:54:18.854Z,83.53
2018-07-28T03:59:46.969Z,83.58
2018-07-28T04:02:15.621Z,83.33
2018-07-28T04:04:44.275Z,83.29
2018-07-28T04:07:12.958Z,83.35
2018-07-28T04:09:41.630Z,83.48
2018-07-28T04:12:10.239Z,83.72
2018-07-28T04:14:38.909Z,83.53
2018-07-28T04:17:07.587Z,83.29
2018-07-28T04:19:36.193Z,82.97
2018-07-28T04:22:04.941Z,82.66
2018-07-28T04:24:33.593Z,82.49
2018-07-28T04:27:02.281Z,81.67
2018-07-28T04:29:30.983Z,81.77
2018-07-28T04:31:59.675Z,82.36
2018-07-28T04:34:28.910Z,81.68
2018-07-28T04:36:57.925Z,81.44
2018-07-28T04:39:26.513Z,81.61
2018-07-28T04:41:55.106Z,81.25
2018-07-28T04:44:23.728Z,80.95
2018-07-28T04:46:52.336Z,80.66
2018-07-28T04:49:20.999Z,80.89
2018-07-28T04:51:49.937Z,80.26
2018-07-28T04:54:18.582Z,80.28
2018-07-28T04:56:47.183Z,79.89
2018-07-28T04:59:15.881Z,80.12
2018-07-28T05:01:44.533Z,79.43
2018-07-28T05:04:13.156Z,79.21
2018-07-28T05:06:41.824Z,78.75
2018-07-28T05:09:11.150Z,78.77
2018-07-28T05:11:39.829Z,79.34
2018-07-28T05:14:08.534Z,79.28
2018-07-28T05:16:37.130Z,79.07
2018-07-28T05:19:05.832Z,78.35
2018-07-28T05:21:34.501Z,78.48
2018-07-28T05:24:03.112Z,79.22
2018-07-28T05:26:31.754Z,78.76
2018-07-28T05:29:00.356Z,78.46
2018-07-28T05:31:28.962Z,78.41
2018-07-28T05:33:57.550Z,78.47
2018-07-28T05:36:26.174Z,78.64
2018-07-28T05:38:54.831Z,78.24
2018-07-28T05:41:23.417Z,78.11
2018-07-28T05:43:52.054Z,78.16
2018-07-28T05:46:20.662Z,78.56
2018-07-28T05:48:49.310Z,78.36
2018-07-28T05:51:17.914Z,78.46
2018-07-28T05:53:46.616Z,77.76
2018-07-28T05:56:15.229Z,77.53
2018-07-28T05:58:44.400Z,76.72
2018-07-28T06:01:13.175Z,76.36
2018-07-28T06:03:42.040Z,76.50
2018-07-28T06:06:10.744Z,76.23
2018-07-28T06:08:39.394Z,76.40
2018-07-28T06:11:08.020Z,76.25
2018-07-28T06:13:36.653Z,75.71
2018-07-28T06:16:05.350Z,75.92
2018-07-28T06:18:33.952Z,74.47
2018-07-28T06:21:02.691Z,73.86
2018-07-28T06:23:31.346Z,75.54
2018-07-28T06:26:00.045Z,74.86
2018-07-28T06:28:28.635Z,74.08
2018-07-28T06:30:57.275Z,74.72
2018-07-28T06:33:25.931Z,73.45
2018-07-28T06:35:54.630Z,74.28
2018-07-28T06:38:23.253Z,74.26
2018-07-28T06:40:51.869Z,73.41
2018-07-28T06:43:20.502Z,72.98
2018-07-28T06:46:59.242Z,72.87
2018-07-28T06:49:27.860Z,72.26
2018-07-28T06:51:56.516Z,72.80
2018-07-28T06:54:25.132Z,72.76
2018-07-28T06:56:53.735Z,71.57
2018-07-28T06:59:22.514Z,72.12
2018-07-28T07:01:51.186Z,72.00
2018-07-28T07:04:19.823Z,71.06
2018-07-28T07:06:48.498Z,70.81
2018-07-28T07:09:17.180Z,71.39
2018-07-28T07:11:45.880Z,72.57
2018-07-28T07:14:14.494Z,71.36
2018-07-28T07:16:43.169Z,72.03
2018-07-28T07:19:11.839Z,71.21
2018-07-28T07:21:40.473Z,71.02
2018-07-28T07:24:09.980Z,69.78
2018-07-28T07:26:38.595Z,69.35
2018-07-28T07:29:07.211Z,69.51
2018-07-28T07:31:35.858Z,71.20
2018-07-28T07:34:04.565Z,69.07
2018-07-28T07:36:33.223Z,70.33
2018-07-28T07:39:01.855Z,68.80
2018-07-28T07:41:30.529Z,69.17
2018-07-28T07:43:59.213Z,69.79
2018-07-28T07:46:27.800Z,69.21
2018-07-28T07:48:56.463Z,69.02
2018-07-28T07:51:25.547Z,68.36
2018-07-28T07:53:54.226Z,70.44
2018-07-28T07:56:22.848Z,68.52
2018-07-28T07:58:51.464Z,68.19
2018-07-28T08:01:20.167Z,67.44
2018-07-28T08:03:48.815Z,67.60
2018-07-28T08:06:17.514Z,67.43
2018-07-28T08:08:46.202Z,66.36
2018-07-28T08:11:14.894Z,65.65
2018-07-28T08:13:43.493Z,65.54
2018-07-28T08:16:12.189Z,66.67
2018-07-28T08:18:40.823Z,65.93
2018-07-28T08:21:09.429Z,67.02
2018-07-28T08:23:38.117Z,65.73
2018-07-28T08:26:06.953Z,65.12
2018-07-28T08:28:35.573Z,65.67
2018-07-28T08:31:04.299Z,65.32
2018-07-28T08:33:32.980Z,63.63
2018-07-28T08:36:01.639Z,64.41
2018-07-28T08:38:30.271Z,64.02
2018-07-28T08:40:59.238Z,63.42
2018-07-28T08:43:27.917Z,64.02
2018-07-28T08:45:56.577Z,64.77
2018-07-28T08:48:25.182Z,62.66
2018-07-28T08:50:53.858Z,62.17
2018-07-28T08:53:22.553Z,62.35
2018-07-28T08:55:51.159Z,61.43
2018-07-28T08:58:19.794Z,60.72
2018-07-28T09:00:48.438Z,60.37
2018-07-28T09:03:17.054Z,60.61
2018-07-28T09:05:45.661Z,61.66
2018-07-28T09:08:14.277Z,59.45
2018-07-28T09:10:42.975Z,60.50
2018-07-28T09:13:11.618Z,59.70
2018-07-28T09:15:40.263Z,59.42
2018-07-28T09:18:08.867Z,59.43
2018-07-28T09:20:37.490Z,59.04
2018-07-28T09:23:06.191Z,58.57
2018-07-28T09:25:34.874Z,58.00
2018-07-28T09:28:03.564Z,57.37
2018-07-28T09:30:32.887Z,57.62
2018-07-28T09:35:36.283Z,57.25
2018-07-28T09:38:04.983Z,55.98
2018-07-28T09:40:33.691Z,56.44
2018-07-28T09:43:02.381Z,57.02
2018-07-28T09:45:31.058Z,56.91
2018-07-28T09:47:59.666Z,54.64
2018-07-28T09:50:28.327Z,55.37
2018-07-28T09:52:56.966Z,54.88
2018-07-28T09:55:25.624Z,55.48
2018-07-28T09:57:54.284Z,53.97
2018-07-28T10:00:28.146Z,55.00
2018-07-28T10:02:56.811Z,54.05
2018-07-28T10:05:25.483Z,53.97
2018-07-28T10:07:54.167Z,53.77
2018-07-28T10:10:22.777Z,51.30
2018-07-28T10:12:51.418Z,52.95
2018-07-28T10:15:20.065Z,53.55
2018-07-28T10:17:48.787Z,51.98
2018-07-28T10:20:17.432Z,51.94
2018-07-28T10:22:46.176Z,52.43
2018-07-28T10:25:14.797Z,53.79
2018-07-28T10:27:43.393Z,51.73
2018-07-28T10:30:12.798Z,52.54
2018-07-28T10:32:41.370Z,50.62
2018-07-28T10:35:11.474Z,51.50
2018-07-28T10:37:40.180Z,51.59
2018-07-28T10:40:09.826Z,50.51
2018-07-28T10:42:38.923Z,50.57
2018-07-28T10:45:07.738Z,51.08
2018-07-28T10:47:36.454Z,51.48
2018-07-28T10:50:05.231Z,51.97
2018-07-28T10:52:33.920Z,50.81
2018-07-28T10:55:02.562Z,47.87
2018-07-28T10:57:31.170Z,49.38
2018-07-28T10:59:59.901Z,47.94
2018-07-28T11:02:28.585Z,48.09
2018-07-28T11:04:58.165Z,47.99
2018-07-28T11:07:26.766Z,47.61
2018-07-28T11:09:55.706Z,45.91
2018-07-28T11:12:24.364Z,44.85
2018-07-28T11:14:53.665Z,44.20
2018-07-28T11:17:22.295Z,44.43
2018-07-28T11:19:50.968Z,43.80
2018-07-28T11:22:19.616Z,41.93
2018-07-28T11:24:48.220Z,41.31
2018-07-28T11:27:16.879Z,41.92
2018-07-28T11:29:45.589Z,40.00
2018-07-28T11:32:25.411Z,39.66
2018-07-28T11:35:05.131Z,39.78
2018-07-28T13:51:45.912Z,45.65
2018-07-28T13:54:14.601Z,46.91
2018-07-28T13:56:43.411Z,46.97
2018-07-28T13:59:12.041Z,46.36
2018-07-28T14:01:40.691Z,47.40
2018-07-28T14:04:09.378Z,48.49
2018-07-28T14:06:38.007Z,48.34
2018-07-28T14:09:08.574Z,49.56
2018-07-28T14:11:37.281Z,49.28
2018-07-28T14:14:05.935Z,49.96
2018-07-28T14:16:34.717Z,49.64
2018-07-28T14:19:03.412Z,50.25
2018-07-28T14:21:32.110Z,50.17
2018-07-28T14:24:00.920Z,50.30
2018-07-28T14:26:29.622Z,50.96
2018-07-28T14:28:58.249Z,50.56
2018-07-28T14:31:27.049Z,50.02
2018-07-28T14:33:56.717Z,50.50
2018-07-28T14:36:25.303Z,49.76
2018-07-28T14:38:54.030Z,49.84
2018-07-28T14:41:22.701Z,49.08
2018-07-28T14:43:51.386Z,49.74
2018-07-28T14:46:20.020Z,49.09
2018-07-28T14:48:48.729Z,48.37
2018-07-28T14:51:17.389Z,46.76
2018-07-28T14:53:45.999Z,44.99
2018-07-28T14:56:14.911Z,45.54
2018-07-28T14:58:43.566Z,45.89
2018-07-28T15:01:12.199Z,44.76
2018-07-28T15:03:40.883Z,44.81
2018-07-28T15:06:09.551Z,44.61
2018-07-28T15:08:38.196Z,43.92
2018-07-28T15:11:06.858Z,44.04
2018-07-28T15:13:35.519Z,43.62
2018-07-28T15:16:04.248Z,43.00
2018-07-28T15:18:32.935Z,41.02
2018-07-28T15:21:01.620Z,39.64
2018-07-28T15:23:30.242Z,39.35
2018-07-28T15:25:58.953Z,38.83
2018-07-28T15:28:27.634Z,36.74
2018-07-28T15:30:56.360Z,39.08
2018-07-28T15:33:25.264Z,40.20
2018-07-28T15:35:53.896Z,43.09
2018-07-28T15:38:23.039Z,43.44
2018-07-28T15:40:51.740Z,42.25
2018-07-28T15:43:20.515Z,41.83
2018-07-28T15:45:49.165Z,40.71
2018-07-28T15:48:17.842Z,40.02
2018-07-28T15:50:46.492Z,41.22
2018-07-28T15:53:15.099Z,40.68
2018-07-28T15:55:44.033Z,40.84
2018-07-28T15:58:12.734Z,40.94
2018-07-28T16:00:42.219Z,40.77
2018-07-28T16:03:10.913Z,41.78
2018-07-28T16:05:39.775Z,40.74
2018-07-28T16:08:08.394Z,39.87
2018-07-28T16:10:37.077Z,40.26
2018-07-28T16:13:05.697Z,38.74
2018-07-28T16:15:34.298Z,38.94
2018-07-28T16:18:02.979Z,39.75
2018-07-28T16:20:31.606Z,39.47
2018-07-28T16:23:00.218Z,40.16
2018-07-28T16:25:28.848Z,39.10
2018-07-28T16:27:57.590Z,40.34
2018-07-28T16:30:27.306Z,40.85
2018-07-28T16:32:56.621Z,41.42
2018-07-28T16:35:25.214Z,43.96
2018-07-28T16:37:53.853Z,45.14
2018-07-28T16:40:22.497Z,46.82
2018-07-28T16:42:51.105Z,47.43
2018-07-28T16:45:19.799Z,47.93
2018-07-28T16:47:48.486Z,46.63
2018-07-28T16:50:17.146Z,48.21
2018-07-28T16:52:45.804Z,46.87
2018-07-28T16:55:14.472Z,47.23
2018-07-28T16:57:43.274Z,46.36
2018-07-28T17:00:12.977Z,47.23
2018-07-28T17:02:41.711Z,47.54
2018-07-28T17:05:10.423Z,47.93
2018-07-28T17:07:39.049Z,47.99
2018-07-28T17:10:07.784Z,47.77
2018-07-28T17:12:36.478Z,48.84
2018-07-28T17:15:05.477Z,49.23
2018-07-28T17:17:34.130Z,49.06
2018-07-28T17:20:02.842Z,50.86
2018-07-28T17:22:31.534Z,51.60
2018-07-28T17:25:00.193Z,51.83
2018-07-28T17:27:28.858Z,52.86
2018-07-28T17:29:57.446Z,53.73
2018-07-28T17:32:26.061Z,54.28
2018-07-28T17:34:54.713Z,54.16
2018-07-28T17:37:23.379Z,54.83
2018-07-28T17:39:52.027Z,54.79
2018-07-28T17:42:20.648Z,54.96
2018-07-28T17:44:50.896Z,55.36
2018-07-28T17:47:19.723Z,55.55
2018-07-28T17:49:48.432Z,56.85
2018-07-28T17:52:17.093Z,56.07
2018-07-28T17:54:45.769Z,56.20
2018-07-28T17:57:14.468Z,56.31
2018-07-28T17:59:43.158Z,56.74
2018-07-28T18:02:11.825Z,58.16
2018-07-28T18:04:40.922Z,63.11
2018-07-28T18:07:09.675Z,67.22
2018-07-28T18:09:38.315Z,67.11
2018-07-28T18:12:07.009Z,68.91
2018-07-28T18:14:35.645Z,69.92
2018-07-28T18:17:04.317Z,70.37
2018-07-28T18:19:33.316Z,71.46
2018-07-28T18:22:04.179Z,67.93
2018-07-28T18:24:33.023Z,73.37
2018-07-28T18:27:01.716Z,74.24
2018-07-28T18:29:30.422Z,76.99
2018-07-28T18:31:59.048Z,76.24
2018-07-28T18:34:28.687Z,77.28
2018-07-28T18:36:57.353Z,77.63
2018-07-28T18:39:25.992Z,79.07
2018-07-28T18:41:54.632Z,80.08
2018-07-28T18:44:23.293Z,77.64
2018-07-28T18:46:51.965Z,79.02
2018-07-28T18:49:20.576Z,81.65
2018-07-28T18:51:49.491Z,80.86
2018-07-28T18:54:18.918Z,78.43
2018-07-28T18:56:47.605Z,78.18
2018-07-28T18:59:16.490Z,78.86
2018-07-28T19:01:45.140Z,76.01
2018-07-28T19:04:14.623Z,75.47
2018-07-28T19:06:43.599Z,74.88
2018-07-28T19:09:17.493Z,74.72
2018-07-28T19:11:46.212Z,75.44
2018-07-28T19:14:20.168Z,74.91
2018-07-28T19:19:24.169Z,77.01
2018-07-28T19:21:53.855Z,78.12
2018-07-28T19:24:23.321Z,79.22
2018-07-28T19:26:51.924Z,80.52
2018-07-28T19:29:25.766Z,80.19
2018-07-28T19:31:54.394Z,81.04
2018-07-28T19:34:23.043Z,81.14
2018-07-28T19:36:56.863Z,81.01
2018-07-28T19:39:25.521Z,80.77
2018-07-28T19:41:59.372Z,80.80
2018-07-28T19:44:28.667Z,81.25
2018-07-28T19:46:57.324Z,81.33
2018-07-28T19:49:25.924Z,82.14
2018-07-28T19:51:54.555Z,81.92
2018-07-28T19:54:23.191Z,81.84
2018-07-28T19:56:51.788Z,82.74
2018-07-28T19:59:20.429Z,83.10
2018-07-28T20:01:49.063Z,82.55
2018-07-28T20:04:17.698Z,82.46
2018-07-28T20:06:46.747Z,82.78
2018-07-28T20:09:15.415Z,82.42
2018-07-28T20:11:44.140Z,81.97
2018-07-28T20:14:12.763Z,81.52
2018-07-28T20:16:41.384Z,80.94
2018-07-28T20:19:10.040Z,80.65
2018-07-28T20:21:38.747Z,80.26
2018-07-28T20:24:07.469Z,79.19
2018-07-28T20:26:36.223Z,78.88
2018-07-28T20:29:04.965Z,79.02
2018-07-28T20:31:33.612Z,78.92
2018-07-28T20:34:02.325Z,77.66
2018-07-28T20:36:31.006Z,78.01
2018-07-28T20:38:59.689Z,78.46
2018-07-28T20:41:28.431Z,77.91
2018-07-28T20:43:57.075Z,78.14
2018-07-28T20:46:25.767Z,78.37
2018-07-28T20:48:54.555Z,77.99
2018-07-28T20:51:23.374Z,77.52
2018-07-28T20:53:52.139Z,76.46
2018-07-28T20:56:21.624Z,76.36
2018-07-28T20:58:50.338Z,77.62
2018-07-28T21:01:18.971Z,77.80
2018-07-28T21:03:47.622Z,78.91
2018-07-28T21:06:16.270Z,79.12
2018-07-28T21:08:44.876Z,79.84
2018-07-28T21:11:14.667Z,79.63
2018-07-28T21:13:43.332Z,79.64
2018-07-28T21:16:11.963Z,80.44
2018-07-28T21:18:40.633Z,80.13
2018-07-28T21:21:09.054Z,80.00
2018-07-28T21:23:37.714Z,79.25
2018-07-28T21:26:06.980Z,78.62
2018-07-28T21:28:35.628Z,78.54
2018-07-28T21:31:04.313Z,78.29
2018-07-28T21:33:33.044Z,78.02
2018-07-28T21:36:01.645Z,78.10
2018-07-28T21:38:30.289Z,78.80
2018-07-28T21:40:58.972Z,77.95
2018-07-28T21:43:27.607Z,78.82
2018-07-28T21:45:56.299Z,79.19
2018-07-28T21:48:25.983Z,78.93
2018-07-28T21:50:54.615Z,78.20
2018-07-28T21:53:23.865Z,79.00
2018-07-28T21:55:52.633Z,79.49
2018-07-28T21:58:21.324Z,79.04
2018-07-28T22:00:58.378Z,79.33
2018-07-28T22:03:27.718Z,78.20
2018-07-28T22:05:56.390Z,78.69
2018-07-28T22:08:25.096Z,78.16
2018-07-28T22:10:54.123Z,76.87
2018-07-28T22:13:22.788Z,76.76
2018-07-28T22:15:51.612Z,77.21
2018-07-28T22:18:20.279Z,76.44
2018-07-28T22:20:49.258Z,77.60
2018-07-28T22:23:17.994Z,78.14
2018-07-28T22:25:46.696Z,77.35
2018-07-28T22:28:15.460Z,77.42
2018-07-28T22:30:44.238Z,77.03
2018-07-28T22:33:13.032Z,77.20
2018-07-28T22:35:41.726Z,78.48
2018-07-28T22:38:10.445Z,78.09
2018-07-28T22:40:39.151Z,77.87
2018-07-28T22:43:08.149Z,77.93
2018-07-28T22:45:36.849Z,78.25
2018-07-28T22:48:05.535Z,77.56
2018-07-28T22:50:34.252Z,76.88
2018-07-28T22:53:02.916Z,77.36
2018-07-28T22:55:31.575Z,77.48
2018-07-28T22:58:00.252Z,78.17
2018-07-28T23:00:28.926Z,78.14
2018-07-28T23:02:57.588Z,77.77
2018-07-28T23:05:26.255Z,77.70
2018-07-28T23:07:54.959Z,77.10
2018-07-28T23:10:23.931Z,77.11
2018-07-28T23:12:52.591Z,76.77
2018-07-28T23:15:21.290Z,76.80
2018-07-28T23:17:49.933Z,78.09
2018-07-28T23:20:18.648Z,77.65
2018-07-28T23:22:47.297Z,77.23
2018-07-28T23:25:15.983Z,76.98
2018-07-28T23:27:44.687Z,76.71
2018-07-28T23:30:13.575Z,76.86
2018-07-28T23:32:42.263Z,75.58
2018-07-28T23:39:47.479Z,76.04
2018-07-28T23:42:16.181Z,76.16
2018-07-28T23:44:44.886Z,76.23
2018-07-28T23:47:13.564Z,75.94
2018-07-28T23:49:42.266Z,76.11
2018-07-28T23:52:10.974Z,76.52
2018-07-28T23:54:39.707Z,75.39
2018-07-28T23:57:08.446Z,75.50
2018-07-28T23:59:37.156Z,75.95
